Strona główna
METAR-TAF:

METAR-TAF

Lotnisko :

Port lotniczy Kair

Kair, Egipt

Szerokość geograficzna: 30-08N, Długość geograficzna: 031-24E, wysokość: 64 m

Aktualna obserwacja pogody

Raport powstał 19 minut temu, godzina 23:00 UTC
Cisza
Temperatura 15°C
Wilgotność 77%
Ciśnienie 1018 hPa
Widzialność: 4000 m
Rozproszone chmury na wysokości 2500 ft
zmętnienie

METAR: HECA 272300Z 00000KT 4000 HZ SCT025 15/11 Q1018 NOSIG

czas: 01:19 (23:19 UTC)

Prognoza

Raport powstał 6 godziny i 19 minut temu, godzina 17:00 UTC
Prognoza ważna od 27 godzina 18 UTC do 28 godzina 24 UTC
Wiatr 9 kt od zachód
Widzialność: 6000 m
Rozproszone chmury na wysokości 2500 ft
Przejściowo
od 27 godzina 20 UTC do 27 godzina 24 UTC
Przejściowo
od 28 godzina 00 UTC do 28 godzina 07 UTC
Prawdopodobieństwo 40% :
Przejściowo
od 28 godzina 02 UTC do 28 godzina 05 UTC

TAF: HECA 271700Z 2718/2824 28009KT 6000 SCT025 TEMPO 2720/2724 4000HZ TEMPO 2800/2807 2000BR PROB40 TEMPO 2802/2805 0850FG VV///

Obserwacja i prognoza pogody dla ponad 4000 lotnisk (raport METAR i TAF).

Dostępne stacje oznaczono żółtymi i czerwonymi punktami na mapie.

Najedź kursorem aby zobaczyć nazwę stacji.

Kliknij aby zobaczyć obserwacje i prognozy pogody.

Aby zmienić mapę: kliknij na zielony przycisk z czarnym krzyżykiem, aby powiększyć; na zielony przycisk z myślnikiem, aby pomniejszyć; na zielone strzałki, aby przejść do map sąsiednich.


METAR-TAF: